sensor_id;sensor_type;location;lat;lon;timestamp;pressure;altitude;pressure_sealevel;temperature;humidity
14882;BME280;7533;51.278;12.588;2023-12-20T00:02:01;99703.41;;;25.33;53.04
14882;BME280;7533;51.278;12.588;2023-12-20T00:07:05;99700.28;;;25.28;53.17
14882;BME280;7533;51.278;12.588;2023-12-20T00:12:09;99697.31;;;25.21;53.12
14882;BME280;7533;51.278;12.588;2023-12-20T00:17:12;99690.47;;;25.08;52.71
14882;BME280;7533;51.278;12.588;2023-12-20T00:22:15;99694.03;;;24.98;52.84
14882;BME280;7533;51.278;12.588;2023-12-20T00:27:19;99692.31;;;24.88;52.98
14882;BME280;7533;51.278;12.588;2023-12-20T00:32:22;99683.75;;;24.83;53.21
14882;BME280;7533;51.278;12.588;2023-12-20T00:37:26;99683.75;;;24.73;53.42
14882;BME280;7533;51.278;12.588;2023-12-20T00:42:30;99673.34;;;24.68;53.57
14882;BME280;7533;51.278;12.588;2023-12-20T00:47:33;99679.34;;;24.62;53.96
14882;BME280;7533;51.278;12.588;2023-12-20T00:52:36;99676.19;;;24.57;54.16
14882;BME280;7533;51.278;12.588;2023-12-20T00:57:40;99673.94;;;24.52;54.42
14882;BME280;7533;51.278;12.588;2023-12-20T01:02:43;99661.69;;;24.48;54.43
14882;BME280;7533;51.278;12.588;2023-12-20T01:07:48;99663.94;;;24.43;54.56
14882;BME280;7533;51.278;12.588;2023-12-20T01:12:52;99655.56;;;24.37;54.85
14882;BME280;7533;51.278;12.588;2023-12-20T01:17:55;99658.38;;;24.35;54.84
14882;BME280;7533;51.278;12.588;2023-12-20T01:23:00;99668.59;;;24.32;55.15
14882;BME280;7533;51.278;12.588;2023-12-20T01:28:05;99650.94;;;24.27;55.08
14882;BME280;7533;51.278;12.588;2023-12-20T01:33:08;99644.94;;;24.24;55.19
14882;BME280;7533;51.278;12.588;2023-12-20T01:38:10;99639.13;;;24.19;55.53
14882;BME280;7533;51.278;12.588;2023-12-20T01:43:15;99637.53;;;24.16;55.43
14882;BME280;7533;51.278;12.588;2023-12-20T01:48:18;99634.25;;;24.13;55.63
14882;BME280;7533;51.278;12.588;2023-12-20T01:53:24;99628.56;;;24.06;55.98
14882;BME280;7533;51.278;12.588;2023-12-20T01:58:29;99628.00;;;24.02;56.15
14882;BME280;7533;51.278;12.588;2023-12-20T02:03:32;99626.56;;;23.98;56.38
14882;BME280;7533;51.278;12.588;2023-12-20T02:08:38;99633.22;;;23.94;56.45
14882;BME280;7533;51.278;12.588;2023-12-20T02:13:42;99628.22;;;23.90;56.63
14882;BME280;7533;51.278;12.588;2023-12-20T02:18:45;99625.06;;;23.85;56.65
14882;BME280;7533;51.278;12.588;2023-12-20T02:23:49;99612.00;;;23.80;56.79
14882;BME280;7533;51.278;12.588;2023-12-20T02:28:52;99607.84;;;23.76;56.76
14882;BME280;7533;51.278;12.588;2023-12-20T02:33:55;99609.84;;;23.74;56.84
14882;BME280;7533;51.278;12.588;2023-12-20T02:38:59;99606.41;;;23.72;57.13
14882;BME280;7533;51.278;12.588;2023-12-20T02:44:03;99603.25;;;23.67;57.21
14882;BME280;7533;51.278;12.588;2023-12-20T02:49:06;99609.06;;;23.62;57.21
14882;BME280;7533;51.278;12.588;2023-12-20T02:54:11;99604.06;;;23.58;57.33
14882;BME280;7533;51.278;12.588;2023-12-20T02:59:14;99607.88;;;23.55;57.64
14882;BME280;7533;51.278;12.588;2023-12-20T03:04:16;99593.81;;;23.52;57.55
14882;BME280;7533;51.278;12.588;2023-12-20T03:09:21;99599.34;;;23.50;57.51
14882;BME280;7533;51.278;12.588;2023-12-20T03:14:24;99586.22;;;23.45;57.52
14882;BME280;7533;51.278;12.588;2023-12-20T03:19:26;99586.66;;;23.41;57.78
14882;BME280;7533;51.278;12.588;2023-12-20T03:24:32;99582.22;;;23.40;57.70
14882;BME280;7533;51.278;12.588;2023-12-20T03:29:35;99577.97;;;23.37;57.87
14882;BME280;7533;51.278;12.588;2023-12-20T03:34:38;99573.72;;;23.35;57.86
14882;BME280;7533;51.278;12.588;2023-12-20T03:39:42;99572.97;;;23.33;58.00
14882;BME280;7533;51.278;12.588;2023-12-20T03:44:45;99586.88;;;23.28;57.95
14882;BME280;7533;51.278;12.588;2023-12-20T03:49:48;99591.56;;;23.26;58.08
14882;BME280;7533;51.278;12.588;2023-12-20T03:54:52;99572.81;;;23.25;58.14
14882;BME280;7533;51.278;12.588;2023-12-20T03:59:55;99581.16;;;23.21;58.27
14882;BME280;7533;51.278;12.588;2023-12-20T04:04:58;99591.25;;;23.19;58.47
14882;BME280;7533;51.278;12.588;2023-12-20T04:10:03;99593.34;;;23.16;58.32
14882;BME280;7533;51.278;12.588;2023-12-20T04:15:06;99589.19;;;23.12;58.34
14882;BME280;7533;51.278;12.588;2023-12-20T04:20:11;99584.69;;;23.12;58.37
14882;BME280;7533;51.278;12.588;2023-12-20T04:25:15;99587.50;;;23.11;58.68
14882;BME280;7533;51.278;12.588;2023-12-20T04:30:18;99601.13;;;23.09;58.53
14882;BME280;7533;51.278;12.588;2023-12-20T04:35:21;99607.91;;;23.04;58.73
14882;BME280;7533;51.278;12.588;2023-12-20T04:40:26;99604.50;;;23.02;58.69
14882;BME280;7533;51.278;12.588;2023-12-20T04:45:29;99588.56;;;22.99;58.69
14882;BME280;7533;51.278;12.588;2023-12-20T04:50:31;99570.81;;;22.96;58.56
14882;BME280;7533;51.278;12.588;2023-12-20T04:55:36;99589.81;;;22.94;58.47
14882;BME280;7533;51.278;12.588;2023-12-20T05:00:39;99598.06;;;22.93;58.43
14882;BME280;7533;51.278;12.588;2023-12-20T05:05:42;99605.44;;;22.91;58.50
14882;BME280;7533;51.278;12.588;2023-12-20T05:10:46;99605.53;;;22.89;58.37
14882;BME280;7533;51.278;12.588;2023-12-20T05:15:49;99612.03;;;22.87;58.46
14882;BME280;7533;51.278;12.588;2023-12-20T05:20:52;99618.44;;;22.86;58.34
14882;BME280;7533;51.278;12.588;2023-12-20T05:26:01;99626.78;;;22.83;58.30
14882;BME280;7533;51.278;12.588;2023-12-20T05:31:03;99620.66;;;22.81;58.53
14882;BME280;7533;51.278;12.588;2023-12-20T05:36:07;99622.75;;;22.77;58.44
14882;BME280;7533;51.278;12.588;2023-12-20T05:41:14;99631.84;;;22.76;58.57
14882;BME280;7533;51.278;12.588;2023-12-20T05:46:17;99638.38;;;22.74;58.46
14882;BME280;7533;51.278;12.588;2023-12-20T05:51:19;99645.72;;;22.71;58.38
14882;BME280;7533;51.278;12.588;2023-12-20T05:56:24;99647.56;;;22.71;58.63
14882;BME280;7533;51.278;12.588;2023-12-20T06:01:27;99653.22;;;22.68;58.61
14882;BME280;7533;51.278;12.588;2023-12-20T06:06:30;99656.88;;;22.67;58.59
14882;BME280;7533;51.278;12.588;2023-12-20T06:11:34;99657.03;;;22.65;58.71
14882;BME280;7533;51.278;12.588;2023-12-20T06:16:37;99651.63;;;22.65;58.61
14882;BME280;7533;51.278;12.588;2023-12-20T06:21:40;99660.00;;;22.62;58.74
14882;BME280;7533;51.278;12.588;2023-12-20T06:26:47;99654.72;;;22.61;58.66
14882;BME280;7533;51.278;12.588;2023-12-20T06:31:50;99661.94;;;22.60;58.77
14882;BME280;7533;51.278;12.588;2023-12-20T06:36:52;99670.03;;;22.60;58.86
14882;BME280;7533;51.278;12.588;2023-12-20T06:41:57;99658.53;;;22.58;58.86
14882;BME280;7533;51.278;12.588;2023-12-20T06:47:00;99663.22;;;22.56;58.91
14882;BME280;7533;51.278;12.588;2023-12-20T06:52:03;99669.47;;;22.57;58.80
14882;BME280;7533;51.278;12.588;2023-12-20T06:57:07;99663.31;;;22.55;58.81
14882;BME280;7533;51.278;12.588;2023-12-20T07:02:11;99663.47;;;22.53;58.96
14882;BME280;7533;51.278;12.588;2023-12-20T07:07:16;99662.75;;;22.51;58.89
14882;BME280;7533;51.278;12.588;2023-12-20T07:12:20;99663.84;;;22.49;58.89
14882;BME280;7533;51.278;12.588;2023-12-20T07:17:23;99649.63;;;22.47;59.32
14882;BME280;7533;51.278;12.588;2023-12-20T07:22:26;99651.59;;;22.44;59.45
14882;BME280;7533;51.278;12.588;2023-12-20T07:27:32;99652.56;;;22.43;59.36
14882;BME280;7533;51.278;12.588;2023-12-20T07:32:35;99656.25;;;22.42;59.27
14882;BME280;7533;51.278;12.588;2023-12-20T07:37:38;99666.19;;;22.42;59.44
14882;BME280;7533;51.278;12.588;2023-12-20T07:42:42;99684.22;;;22.41;59.37
14882;BME280;7533;51.278;12.588;2023-12-20T07:47:45;99691.44;;;22.41;59.53
14882;BME280;7533;51.278;12.588;2023-12-20T07:52:48;99692.31;;;22.41;59.50
14882;BME280;7533;51.278;12.588;2023-12-20T07:57:52;99688.75;;;22.41;59.61
14882;BME280;7533;51.278;12.588;2023-12-20T08:02:55;99696.97;;;22.39;59.44
14882;BME280;7533;51.278;12.588;2023-12-20T08:07:58;99702.47;;;22.38;59.31
14882;BME280;7533;51.278;12.588;2023-12-20T08:13:02;99696.38;;;22.36;59.42
14882;BME280;7533;51.278;12.588;2023-12-20T08:18:06;99690.13;;;22.35;59.47
14882;BME280;7533;51.278;12.588;2023-12-20T08:23:08;99692.81;;;22.35;59.30
14882;BME280;7533;51.278;12.588;2023-12-20T08:28:13;99688.41;;;22.34;59.54
14882;BME280;7533;51.278;12.588;2023-12-20T08:33:15;99692.81;;;22.35;59.56
14882;BME280;7533;51.278;12.588;2023-12-20T08:38:18;99690.25;;;22.34;59.44
14882;BME280;7533;51.278;12.588;2023-12-20T08:43:23;99688.28;;;22.36;59.43
14882;BME280;7533;51.278;12.588;2023-12-20T08:48:26;99686.28;;;22.38;59.20
14882;BME280;7533;51.278;12.588;2023-12-20T08:53:29;99689.97;;;22.37;59.11
14882;BME280;7533;51.278;12.588;2023-12-20T08:58:33;99691.81;;;22.36;58.95
14882;BME280;7533;51.278;12.588;2023-12-20T09:03:37;99683.72;;;22.36;58.85
14882;BME280;7533;51.278;12.588;2023-12-20T09:08:41;99681.03;;;22.36;59.05
14882;BME280;7533;51.278;12.588;2023-12-20T09:13:45;99681.03;;;22.36;59.02
14882;BME280;7533;51.278;12.588;2023-12-20T09:18:48;99681.88;;;22.37;58.92
14882;BME280;7533;51.278;12.588;2023-12-20T09:23:51;99673.94;;;22.35;59.07
14882;BME280;7533;51.278;12.588;2023-12-20T09:28:55;99670.38;;;22.35;59.03
14882;BME280;7533;51.278;12.588;2023-12-20T09:33:58;99666.69;;;22.36;58.80
14882;BME280;7533;51.278;12.588;2023-12-20T09:39:01;99670.25;;;22.36;58.94
14882;BME280;7533;51.278;12.588;2023-12-20T09:44:06;99678.47;;;22.35;58.75
14882;BME280;7533;51.278;12.588;2023-12-20T09:49:10;99659.47;;;22.36;58.47
14882;BME280;7533;51.278;12.588;2023-12-20T09:54:14;99657.13;;;22.43;58.15
14882;BME280;7533;51.278;12.588;2023-12-20T09:59:19;99649.88;;;22.43;57.62
14882;BME280;7533;51.278;12.588;2023-12-20T10:04:22;99644.38;;;22.45;56.66
14882;BME280;7533;51.278;12.588;2023-12-20T10:09:31;99669.69;;;21.77;49.20
14882;BME280;7533;51.278;12.588;2023-12-20T10:14:36;99659.31;;;21.38;47.36
14882;BME280;7533;51.278;12.588;2023-12-20T10:19:38;99658.50;;;21.14;45.98
14882;BME280;7533;51.278;12.588;2023-12-20T10:24:41;99629.94;;;20.89;45.86
14882;BME280;7533;51.278;12.588;2023-12-20T10:29:46;99620.28;;;21.67;47.56
14882;BME280;7533;51.278;12.588;2023-12-20T10:34:49;99623.38;;;21.94;48.36
14882;BME280;7533;51.278;12.588;2023-12-20T10:39:54;99623.13;;;22.08;48.96
14882;BME280;7533;51.278;12.588;2023-12-20T10:45:00;99606.25;;;22.17;49.36
14882;BME280;7533;51.278;12.588;2023-12-20T10:50:05;99618.69;;;22.30;49.92
14882;BME280;7533;51.278;12.588;2023-12-20T10:55:09;99604.31;;;22.40;50.26
14882;BME280;7533;51.278;12.588;2023-12-20T11:00:14;99585.78;;;22.47;50.47
14882;BME280;7533;51.278;12.588;2023-12-20T11:05:31;99573.34;;;22.56;50.85
14882;BME280;7533;51.278;12.588;2023-12-20T11:10:42;99568.41;;;22.61;51.20
14882;BME280;7533;51.278;12.588;2023-12-20T11:15:49;99568.00;;;22.65;51.29
14882;BME280;7533;51.278;12.588;2023-12-20T11:20:54;99564.06;;;22.69;51.54
14882;BME280;7533;51.278;12.588;2023-12-20T11:25:57;99542.97;;;22.75;51.72
14882;BME280;7533;51.278;12.588;2023-12-20T11:31:02;99538.13;;;22.78;51.88
14882;BME280;7533;51.278;12.588;2023-12-20T11:36:13;99546.97;;;22.80;51.91
14882;BME280;7533;51.278;12.588;2023-12-20T11:41:16;99538.47;;;22.85;52.02
14882;BME280;7533;51.278;12.588;2023-12-20T11:46:21;99529.41;;;22.86;52.02
14882;BME280;7533;51.278;12.588;2023-12-20T11:51:24;99522.16;;;22.86;52.34
14882;BME280;7533;51.278;12.588;2023-12-20T11:56:29;99505.84;;;22.88;52.43
14882;BME280;7533;51.278;12.588;2023-12-20T12:01:35;99504.13;;;22.87;52.61
14882;BME280;7533;51.278;12.588;2023-12-20T12:06:38;99491.50;;;22.87;52.57
14882;BME280;7533;51.278;12.588;2023-12-20T12:11:42;99476.91;;;22.90;52.66
14882;BME280;7533;51.278;12.588;2023-12-20T12:16:47;99473.78;;;22.94;52.83
14882;BME280;7533;51.278;12.588;2023-12-20T12:22:04;99473.78;;;22.94;53.02
14882;BME280;7533;51.278;12.588;2023-12-20T12:27:08;99458.31;;;22.96;53.05
14882;BME280;7533;51.278;12.588;2023-12-20T12:32:12;99462.59;;;22.99;53.01
14882;BME280;7533;51.278;12.588;2023-12-20T12:37:15;99445.28;;;23.02;53.14
14882;BME280;7533;51.278;12.588;2023-12-20T12:42:18;99443.44;;;23.02;53.18
14882;BME280;7533;51.278;12.588;2023-12-20T12:47:24;99437.03;;;23.03;53.18
14882;BME280;7533;51.278;12.588;2023-12-20T12:52:27;99438.75;;;23.04;53.27
14882;BME280;7533;51.278;12.588;2023-12-20T12:57:30;99435.19;;;23.04;53.27
14882;BME280;7533;51.278;12.588;2023-12-20T13:02:34;99442.28;;;23.05;53.44
14882;BME280;7533;51.278;12.588;2023-12-20T13:07:39;99432.34;;;23.05;53.56
14882;BME280;7533;51.278;12.588;2023-12-20T13:12:42;99432.22;;;23.07;53.51
14882;BME280;7533;51.278;12.588;2023-12-20T13:17:47;99431.22;;;23.08;53.64
14882;BME280;7533;51.278;12.588;2023-12-20T13:22:51;99425.84;;;23.08;53.58
14882;BME280;7533;51.278;12.588;2023-12-20T13:27:53;99402.41;;;23.08;53.50
14882;BME280;7533;51.278;12.588;2023-12-20T13:32:58;99401.25;;;23.11;53.40
14882;BME280;7533;51.278;12.588;2023-12-20T13:38:01;99389.59;;;23.10;53.46
14882;BME280;7533;51.278;12.588;2023-12-20T13:43:04;99392.75;;;23.15;53.54
14882;BME280;7533;51.278;12.588;2023-12-20T13:48:09;99393.88;;;23.22;53.38
14882;BME280;7533;51.278;12.588;2023-12-20T13:53:12;99390.94;;;23.26;53.22
14882;BME280;7533;51.278;12.588;2023-12-20T13:58:15;99391.63;;;23.28;53.26
14882;BME280;7533;51.278;12.588;2023-12-20T14:03:20;99413.66;;;23.33;53.09
14882;BME280;7533;51.278;12.588;2023-12-20T14:08:22;99381.13;;;23.34;52.83
14882;BME280;7533;51.278;12.588;2023-12-20T14:13:25;99380.84;;;23.37;52.88
14882;BME280;7533;51.278;12.588;2023-12-20T14:18:30;99387.25;;;23.36;52.88
14882;BME280;7533;51.278;12.588;2023-12-20T14:23:33;99387.94;;;23.29;53.88
14882;BME280;7533;51.278;12.588;2023-12-20T14:28:36;99387.81;;;23.30;54.43
14882;BME280;7533;51.278;12.588;2023-12-20T14:33:41;99380.97;;;23.26;54.85
14882;BME280;7533;51.278;12.588;2023-12-20T14:38:44;99384.81;;;23.23;55.21
14882;BME280;7533;51.278;12.588;2023-12-20T14:43:48;99391.34;;;23.21;55.49
14882;BME280;7533;51.278;12.588;2023-12-20T14:48:52;99387.19;;;23.17;55.55
14882;BME280;7533;51.278;12.588;2023-12-20T14:53:55;99390.03;;;23.15;55.71
14882;BME280;7533;51.278;12.588;2023-12-20T14:58:59;99388.59;;;23.11;55.81
14882;BME280;7533;51.278;12.588;2023-12-20T15:04:05;99386.19;;;23.08;55.86
14882;BME280;7533;51.278;12.588;2023-12-20T15:09:08;99400.69;;;23.07;55.98
14882;BME280;7533;51.278;12.588;2023-12-20T15:14:11;99408.91;;;23.06;56.27
14882;BME280;7533;51.278;12.588;2023-12-20T15:19:18;99402.66;;;23.05;56.35
14882;BME280;7533;51.278;12.588;2023-12-20T15:24:21;99394.72;;;23.04;56.39
14882;BME280;7533;51.278;12.588;2023-12-20T15:29:30;99405.91;;;22.99;56.28
14882;BME280;7533;51.278;12.588;2023-12-20T15:34:34;99415.00;;;22.98;56.57
14882;BME280;7533;51.278;12.588;2023-12-20T15:39:37;99404.22;;;22.98;56.67
14882;BME280;7533;51.278;12.588;2023-12-20T15:44:40;99401.66;;;22.96;56.60
14882;BME280;7533;51.278;12.588;2023-12-20T15:49:44;99411.47;;;22.98;56.67
14882;BME280;7533;51.278;12.588;2023-12-20T15:54:48;99404.34;;;22.96;56.67
14882;BME280;7533;51.278;12.588;2023-12-20T15:59:51;99400.81;;;22.96;56.67
14882;BME280;7533;51.278;12.588;2023-12-20T16:04:56;99405.22;;;22.97;56.61
14882;BME280;7533;51.278;12.588;2023-12-20T16:09:59;99417.97;;;22.95;56.72
14882;BME280;7533;51.278;12.588;2023-12-20T16:15:03;99423.25;;;22.96;56.60
14882;BME280;7533;51.278;12.588;2023-12-20T16:20:08;99428.75;;;22.95;56.60
14882;BME280;7533;51.278;12.588;2023-12-20T16:25:12;99431.44;;;22.95;56.63
14882;BME280;7533;51.278;12.588;2023-12-20T16:30:15;99430.59;;;22.94;56.63
14882;BME280;7533;51.278;12.588;2023-12-20T16:35:19;99424.81;;;22.99;56.59
14882;BME280;7533;51.278;12.588;2023-12-20T16:40:22;99422.25;;;22.98;56.71
14882;BME280;7533;51.278;12.588;2023-12-20T16:45:26;99430.50;;;22.96;57.04
14882;BME280;7533;51.278;12.588;2023-12-20T16:50:30;99430.59;;;22.94;57.14
14882;BME280;7533;51.278;12.588;2023-12-20T16:55:33;99426.06;;;22.95;57.21
14882;BME280;7533;51.278;12.588;2023-12-20T17:00:36;99438.44;;;22.98;57.64
14882;BME280;7533;51.278;12.588;2023-12-20T17:05:41;99437.28;;;23.00;58.03
14882;BME280;7533;51.278;12.588;2023-12-20T17:10:44;99442.00;;;22.98;58.39
14882;BME280;7533;51.278;12.588;2023-12-20T17:15:47;99431.34;;;22.96;58.60
14882;BME280;7533;51.278;12.588;2023-12-20T17:20:51;99435.03;;;22.95;58.97
14882;BME280;7533;51.278;12.588;2023-12-20T17:25:54;99443.69;;;22.99;59.08
14882;BME280;7533;51.278;12.588;2023-12-20T17:30:57;99443.00;;;22.97;59.14
14882;BME280;7533;51.278;12.588;2023-12-20T17:36:03;99446.78;;;22.94;59.49
14882;BME280;7533;51.278;12.588;2023-12-20T17:41:06;99453.19;;;22.93;59.52
14882;BME280;7533;51.278;12.588;2023-12-20T17:46:09;99457.88;;;22.91;59.45
14882;BME280;7533;51.278;12.588;2023-12-20T17:51:13;99452.75;;;22.88;59.42
14882;BME280;7533;51.278;12.588;2023-12-20T17:56:17;99449.44;;;22.85;59.43
14882;BME280;7533;51.278;12.588;2023-12-20T18:01:20;99453.09;;;22.84;59.45
14882;BME280;7533;51.278;12.588;2023-12-20T18:06:25;99455.09;;;22.82;59.56
14882;BME280;7533;51.278;12.588;2023-12-20T18:11:28;99452.41;;;22.82;59.85
14882;BME280;7533;51.278;12.588;2023-12-20T18:16:31;99458.78;;;22.81;59.81
14882;BME280;7533;51.278;12.588;2023-12-20T18:21:39;99461.50;;;22.81;59.87
14882;BME280;7533;51.278;12.588;2023-12-20T18:26:42;99459.03;;;22.78;59.93
14882;BME280;7533;51.278;12.588;2023-12-20T18:31:45;99450.41;;;22.84;59.58
14882;BME280;7533;51.278;12.588;2023-12-20T18:36:50;99442.41;;;22.93;59.51
14882;BME280;7533;51.278;12.588;2023-12-20T18:41:53;99444.13;;;23.04;59.21
14882;BME280;7533;51.278;12.588;2023-12-20T18:46:56;99440.47;;;23.15;58.91
14882;BME280;7533;51.278;12.588;2023-12-20T18:52:00;99433.41;;;23.23;58.79
14882;BME280;7533;51.278;12.588;2023-12-20T18:57:04;99428.16;;;23.32;58.41
14882;BME280;7533;51.278;12.588;2023-12-20T19:02:08;99413.94;;;23.39;58.17
14882;BME280;7533;51.278;12.588;2023-12-20T19:07:14;99415.81;;;23.48;58.01
14882;BME280;7533;51.278;12.588;2023-12-20T19:12:17;99408.84;;;23.56;57.74
14882;BME280;7533;51.278;12.588;2023-12-20T19:17:20;99398.38;;;23.62;57.37
14882;BME280;7533;51.278;12.588;2023-12-20T19:22:24;99389.00;;;23.66;57.33
14882;BME280;7533;51.278;12.588;2023-12-20T19:27:30;99376.91;;;23.70;56.98
14882;BME280;7533;51.278;12.588;2023-12-20T19:32:33;99363.97;;;23.74;56.65
14882;BME280;7533;51.278;12.588;2023-12-20T19:37:37;99358.00;;;23.80;56.20
14882;BME280;7533;51.278;12.588;2023-12-20T19:42:40;99352.28;;;23.83;55.89
14882;BME280;7533;51.278;12.588;2023-12-20T19:47:48;99347.47;;;23.87;55.69
14882;BME280;7533;51.278;12.588;2023-12-20T19:52:52;99341.75;;;23.90;55.39
14882;BME280;7533;51.278;12.588;2023-12-20T19:57:55;99342.31;;;23.93;55.08
14882;BME280;7533;51.278;12.588;2023-12-20T20:02:58;99339.19;;;23.98;54.61
14882;BME280;7533;51.278;12.588;2023-12-20T20:08:03;99328.81;;;24.03;54.25
14882;BME280;7533;51.278;12.588;2023-12-20T20:13:06;99325.78;;;24.06;54.14
14882;BME280;7533;51.278;12.588;2023-12-20T20:18:09;99322.06;;;24.07;53.78
14882;BME280;7533;51.278;12.588;2023-12-20T20:23:14;99317.94;;;24.13;53.55
14882;BME280;7533;51.278;12.588;2023-12-20T20:28:17;99318.34;;;24.18;53.37
14882;BME280;7533;51.278;12.588;2023-12-20T20:33:22;99314.34;;;24.22;53.18
14882;BME280;7533;51.278;12.588;2023-12-20T20:38:26;99313.06;;;24.26;52.85
14882;BME280;7533;51.278;12.588;2023-12-20T20:43:29;99309.09;;;24.30;52.75
14882;BME280;7533;51.278;12.588;2023-12-20T20:48:33;99314.16;;;24.33;52.84
14882;BME280;7533;51.278;12.588;2023-12-20T20:53:52;99305.81;;;24.36;52.30
14882;BME280;7533;51.278;12.588;2023-12-20T20:59:09;99303.81;;;24.38;52.47
14882;BME280;7533;51.278;12.588;2023-12-20T21:04:12;99284.44;;;24.43;52.29
14882;BME280;7533;51.278;12.588;2023-12-20T21:09:16;99292.09;;;24.47;52.04
14882;BME280;7533;51.278;12.588;2023-12-20T21:14:19;99277.41;;;24.50;51.81
14882;BME280;7533;51.278;12.588;2023-12-20T21:19:21;99266.97;;;24.55;51.76
14882;BME280;7533;51.278;12.588;2023-12-20T21:24:27;99250.59;;;24.57;52.00
14882;BME280;7533;51.278;12.588;2023-12-20T21:29:30;99231.03;;;24.63;51.93
14882;BME280;7533;51.278;12.588;2023-12-20T21:34:33;99216.22;;;24.67;51.68
14882;BME280;7533;51.278;12.588;2023-12-20T21:39:37;99207.94;;;24.68;51.70
14882;BME280;7533;51.278;12.588;2023-12-20T21:44:40;99200.38;;;24.72;51.89
14882;BME280;7533;51.278;12.588;2023-12-20T21:49:43;99182.00;;;24.75;52.03
14882;BME280;7533;51.278;12.588;2023-12-20T21:54:47;99166.28;;;24.79;52.23
14882;BME280;7533;51.278;12.588;2023-12-20T21:59:50;99160.41;;;24.84;51.93
14882;BME280;7533;51.278;12.588;2023-12-20T22:04:53;99158.25;;;24.87;52.04
14882;BME280;7533;51.278;12.588;2023-12-20T22:09:57;99126.44;;;24.89;51.87
14882;BME280;7533;51.278;12.588;2023-12-20T22:15:00;99114.31;;;24.93;51.82
14882;BME280;7533;51.278;12.588;2023-12-20T22:20:04;99097.91;;;24.95;51.81
14882;BME280;7533;51.278;12.588;2023-12-20T22:25:09;99097.44;;;24.99;52.04
14882;BME280;7533;51.278;12.588;2023-12-20T22:30:12;99091.69;;;25.02;51.86
14882;BME280;7533;51.278;12.588;2023-12-20T22:35:15;99077.72;;;25.07;52.04
14882;BME280;7533;51.278;12.588;2023-12-20T22:40:19;99054.91;;;25.10;51.66
14882;BME280;7533;51.278;12.588;2023-12-20T22:45:22;99048.31;;;25.12;51.81
14882;BME280;7533;51.278;12.588;2023-12-20T22:50:25;99036.31;;;25.15;51.78
14882;BME280;7533;51.278;12.588;2023-12-20T22:55:29;99030.28;;;25.21;51.75
14882;BME280;7533;51.278;12.588;2023-12-20T23:00:32;99016.56;;;25.22;51.73
14882;BME280;7533;51.278;12.588;2023-12-20T23:05:36;99016.03;;;25.19;51.80
14882;BME280;7533;51.278;12.588;2023-12-20T23:10:40;99017.09;;;25.26;51.40
14882;BME280;7533;51.278;12.588;2023-12-20T23:15:44;99012.00;;;25.23;51.90
14882;BME280;7533;51.278;12.588;2023-12-20T23:20:46;99009.28;;;25.23;51.87
14882;BME280;7533;51.278;12.588;2023-12-20T23:25:51;99001.16;;;25.23;51.81
14882;BME280;7533;51.278;12.588;2023-12-20T23:30:53;98985.75;;;25.23;51.86
14882;BME280;7533;51.278;12.588;2023-12-20T23:35:56;98970.53;;;25.22;51.68
14882;BME280;7533;51.278;12.588;2023-12-20T23:41:01;98953.09;;;25.25;51.57
14882;BME280;7533;51.278;12.588;2023-12-20T23:46:03;98949.06;;;25.29;51.52
14882;BME280;7533;51.278;12.588;2023-12-20T23:51:06;98961.44;;;25.31;51.79
14882;BME280;7533;51.278;12.588;2023-12-20T23:56:11;98930.28;;;25.36;51.50
